Time;durP1;ratioP1;P1;durP2;ratioP2;P2;SDS_P1;SDS_P2;PMS_P1;PMS_P2;Temp;Humidity;BMP_temperature;BMP_pressure;BME280_temperature;BME280_humidity;BME280_pressure;Samples;Min_cycle;Max_cycle;Signal;HPM_P1;HPM_P2
2022/12/25 00:01:21;;;;;;;;;;;26.80;99.90;;;;;;5023621;28;19921;-70
2022/12/25 00:03:48;;;;;;;;;;;27.00;99.20;;;;;;5019633;28;20052;-71
2022/12/25 00:06:14;;;;;;;;;;;27.00;99.30;;;;;;5026947;28;20512;-71
2022/12/25 00:08:41;;;;;;;;;;;27.10;99.00;;;;;;5029163;28;19914;-68
2022/12/25 00:11:10;;;;;;;;;;;27.40;98.90;;;;;;5029879;28;20004;-68
2022/12/25 00:13:37;;;;;;;;;;;27.60;98.30;;;;;;5024174;28;19913;-69
2022/12/25 00:16:07;;;;;;;;;;;28.00;98.10;;;;;;5031696;28;20059;-73
2022/12/25 00:18:34;;;;;;;;;;;28.10;97.50;;;;;;5019913;28;19928;-72
2022/12/25 00:21:05;;;;;;;;;;;28.00;97.60;;;;;;5023922;28;20294;-74
2022/12/25 00:23:32;;;;;;;;;;;28.20;98.00;;;;;;5026466;28;20090;-75
2022/12/25 00:25:58;;;;;;;;;;;28.80;97.70;;;;;;5026269;28;19917;-74
2022/12/25 00:28:25;;;;;;;;;;;29.30;96.40;;;;;;5025123;28;19913;-74
2022/12/25 00:30:52;;;;;;;;;;;29.10;95.80;;;;;;5022377;28;20367;-74
2022/12/25 00:33:18;;;;;;;;;;;28.90;96.40;;;;;;5018092;28;19917;-75
2022/12/25 00:35:55;;;;;;;;;;;29.10;95.90;;;;;;5019678;28;19932;-76
2022/12/25 00:38:22;;;;;;;;;;;29.20;95.70;;;;;;5018744;28;20366;-72
2022/12/25 00:40:49;;;;;;;;;;;29.50;95.40;;;;;;5021433;28;19918;-72
2022/12/25 00:43:15;;;;;;;;;;;29.50;95.20;;;;;;5020452;28;19958;-71
2022/12/25 00:45:42;;;;;;;;;;;29.70;96.00;;;;;;5017113;28;19963;-75
2022/12/25 00:48:11;;;;;;;;;;;30.20;95.60;;;;;;5009810;28;19924;-76
2022/12/25 00:50:38;;;;;;;;;;;30.50;94.30;;;;;;5009293;28;20306;-75
2022/12/25 00:53:05;;;;;;;;;;;30.40;94.00;;;;;;5018636;28;19920;-75
2022/12/25 00:55:31;;;;;;;;;;;30.20;94.10;;;;;;5025913;28;20013;-71
2022/12/25 00:57:58;;;;;;;;;;;30.20;94.50;;;;;;5022321;28;19921;-74
2022/12/25 01:00:25;;;;;;;;;;;30.20;93.90;;;;;;5019111;28;20007;-70
2022/12/25 01:02:51;;;;;;;;;;;30.50;93.90;;;;;;5019292;28;19932;-73
2022/12/25 01:05:18;;;;;;;;;;;30.70;94.00;;;;;;5019902;28;19971;-70
2022/12/25 01:07:44;;;;;;;;;;;31.00;93.70;;;;;;5026907;28;19920;-74
2022/12/25 01:10:23;;;;;;;;;;;31.10;93.20;;;;;;5024250;28;19932;-75
2022/12/25 01:12:50;;;;;;;;;;;30.90;93.20;;;;;;5016419;28;20306;-74
2022/12/25 01:15:18;;;;;;;;;;;30.80;93.10;;;;;;5011000;28;20429;-74
2022/12/25 01:17:44;;;;;;;;;;;30.90;93.50;;;;;;5018696;28;20007;-75
2022/12/25 01:20:13;;;;;;;;;;;31.30;93.10;;;;;;5020171;28;20025;-72
2022/12/25 01:22:39;;;;;;;;;;;31.60;92.40;;;;;;5014063;28;19932;-70
2022/12/25 01:25:07;;;;;;;;;;;31.30;92.50;;;;;;5036547;28;19917;-77
2022/12/25 01:27:34;;;;;;;;;;;31.40;92.70;;;;;;5022274;28;19920;-70
2022/12/25 01:30:01;;;;;;;;;;;31.50;92.40;;;;;;5020941;28;21511;-71
2022/12/25 01:32:28;;;;;;;;;;;31.70;92.80;;;;;;5024134;28;19921;-71
2022/12/25 01:34:55;;;;;;;;;;;31.80;92.00;;;;;;5024043;28;19929;-75
2022/12/25 01:37:22;;;;;;;;;;;31.80;92.70;;;;;;5020975;28;19920;-77
2022/12/25 01:39:49;;;;;;;;;;;32.10;92.20;;;;;;5023343;28;19967;-78
2022/12/25 01:42:17;;;;;;;;;;;32.10;91.90;;;;;;5012090;28;19917;-72
2022/12/25 01:44:47;;;;;;;;;;;32.20;92.00;;;;;;5018182;28;19994;-84
2022/12/25 01:47:16;;;;;;;;;;;32.20;91.90;;;;;;5028917;28;19913;-78
2022/12/25 01:49:45;;;;;;;;;;;32.20;91.60;;;;;;5017750;28;19925;-75
2022/12/25 01:52:18;;;;;;;;;;;32.10;91.90;;;;;;5025428;28;20050;-70
2022/12/25 01:54:49;;;;;;;;;;;32.10;91.60;;;;;;5023571;28;19913;-80
2022/12/25 01:57:18;;;;;;;;;;;31.90;92.20;;;;;;5019378;28;19921;-70
2022/12/25 01:59:45;;;;;;;;;;;32.10;91.70;;;;;;5023507;28;19917;-79
2022/12/25 02:02:12;;;;;;;;;;;32.20;92.10;;;;;;5019386;28;19965;-80
2022/12/25 02:04:41;;;;;;;;;;;32.20;91.30;;;;;;5024149;28;19975;-77
2022/12/25 02:07:14;;;;;;;;;;;32.10;91.40;;;;;;5028508;28;19913;-84
2022/12/25 02:09:41;;;;;;;;;;;32.20;91.20;;;;;;5024327;28;19913;-80
2022/12/25 02:12:08;;;;;;;;;;;32.10;91.20;;;;;;5032126;28;19952;-74
2022/12/25 02:14:36;;;;;;;;;;;32.10;91.20;;;;;;5020024;28;19913;-81
2022/12/25 02:17:03;;;;;;;;;;;32.40;91.10;;;;;;5028645;28;20423;-75
2022/12/25 02:19:29;;;;;;;;;;;32.60;90.70;;;;;;5033448;28;19912;-81
2022/12/25 02:22:08;;;;;;;;;;;32.60;90.80;;;;;;5038831;28;19990;-75
2022/12/25 02:24:53;;;;;;;;;;;32.80;90.40;;;;;;5019707;28;19920;-83
2022/12/25 02:27:36;;;;;;;;;;;32.90;90.20;;;;;;5032757;28;19919;-81
2022/12/25 02:30:05;;;;;;;;;;;33.10;90.80;;;;;;5021740;28;19999;-77
2022/12/25 02:32:34;;;;;;;;;;;33.40;89.40;;;;;;5027996;28;20004;-72
2022/12/25 02:35:04;;;;;;;;;;;33.50;89.60;;;;;;5019045;28;19917;-86
2022/12/25 02:37:34;;;;;;;;;;;33.70;90.00;;;;;;5026014;28;19998;-74
2022/12/25 02:40:26;;;;;;;;;;;33.70;89.20;;;;;;5019654;28;19921;-71
2022/12/25 03:08:34;;;;;;;;;;;34.60;87.50;;;;;;5031720;28;19921;-73
2022/12/25 03:13:51;;;;;;;;;;;34.60;86.30;;;;;;5026612;28;20312;-72
2022/12/25 03:26:53;;;;;;;;;;;34.60;87.00;;;;;;5015388;28;19959;-77
2022/12/25 03:27:24;;;;;;;;;;;34.80;85.80;;;;;;5011622;28;19997;-77
2022/12/25 03:32:45;;;;;;;;;;;35.30;85.90;;;;;;5018740;28;20006;-71
2022/12/25 03:35:24;;;;;;;;;;;35.60;85.80;;;;;;5005209;28;20402;-72
2022/12/25 04:36:12;;;;;;;;;;;36.20;84.40;;;;;;5017469;28;19952;-70
2022/12/25 04:38:39;;;;;;;;;;;36.30;83.30;;;;;;5011317;28;20341;-73
2022/12/25 04:41:07;;;;;;;;;;;36.30;84.50;;;;;;5013232;28;20265;-70
2022/12/25 04:43:34;;;;;;;;;;;36.30;84.20;;;;;;5011618;28;19913;-72
2022/12/25 04:46:01;;;;;;;;;;;36.10;84.40;;;;;;5015438;28;19957;-70
2022/12/25 04:48:29;;;;;;;;;;;35.90;85.30;;;;;;5019449;28;19920;-71
2022/12/25 04:50:56;;;;;;;;;;;35.80;85.60;;;;;;5014075;28;19928;-71
2022/12/25 04:53:23;;;;;;;;;;;35.90;85.90;;;;;;5022013;28;19917;-71
2022/12/25 04:55:50;;;;;;;;;;;35.80;85.20;;;;;;5033336;28;19917;-71
2022/12/25 04:58:16;;;;;;;;;;;35.70;85.40;;;;;;5000582;28;19937;-72
2022/12/25 05:00:43;;;;;;;;;;;35.70;86.00;;;;;;4994583;28;20368;-69
2022/12/25 05:03:10;;;;;;;;;;;35.60;85.60;;;;;;5003854;28;20004;-70
2022/12/25 05:05:38;;;;;;;;;;;35.50;85.40;;;;;;5032274;28;19913;-71
2022/12/25 05:08:05;;;;;;;;;;;35.20;86.00;;;;;;5024243;28;19913;-71
2022/12/25 05:10:31;;;;;;;;;;;34.90;87.50;;;;;;5022252;28;19920;-72
2022/12/25 05:12:58;;;;;;;;;;;34.90;87.40;;;;;;5021123;28;19914;-71
2022/12/25 05:15:25;;;;;;;;;;;34.90;87.00;;;;;;5026201;28;20379;-74
2022/12/25 05:17:51;;;;;;;;;;;34.90;87.40;;;;;;5007202;28;19914;-71
2022/12/25 05:20:18;;;;;;;;;;;34.80;88.00;;;;;;5002972;28;19937;-71
2022/12/25 05:22:44;;;;;;;;;;;34.80;88.00;;;;;;5043685;28;19990;-70
2022/12/25 05:25:11;;;;;;;;;;;34.90;87.70;;;;;;5032997;28;20385;-70
2022/12/25 05:27:38;;;;;;;;;;;34.90;87.60;;;;;;5026016;28;19924;-70
2022/12/25 05:30:05;;;;;;;;;;;34.70;87.40;;;;;;5012085;28;19909;-70
2022/12/25 05:32:31;;;;;;;;;;;34.50;88.60;;;;;;5013735;28;19917;-72
2022/12/25 05:34:59;;;;;;;;;;;34.50;88.20;;;;;;5031250;28;19917;-76
2022/12/25 05:37:26;;;;;;;;;;;34.50;88.40;;;;;;5032317;28;19913;-70
2022/12/25 05:39:52;;;;;;;;;;;34.40;88.40;;;;;;5030453;28;19913;-71
2022/12/25 05:42:19;;;;;;;;;;;34.50;88.60;;;;;;5029290;28;19924;-70
2022/12/25 05:44:46;;;;;;;;;;;34.50;88.30;;;;;;5012258;28;19967;-71
2022/12/25 05:47:12;;;;;;;;;;;34.30;89.20;;;;;;5018981;28;19919;-73
2022/12/25 05:49:39;;;;;;;;;;;34.20;89.40;;;;;;5036923;28;19936;-71
2022/12/25 05:52:06;;;;;;;;;;;34.20;89.10;;;;;;5030265;28;19920;-72
2022/12/25 05:54:33;;;;;;;;;;;34.30;89.70;;;;;;5038714;28;19913;-71
2022/12/25 05:57:00;;;;;;;;;;;34.30;88.90;;;;;;5051476;28;20015;-71
2022/12/25 05:59:30;;;;;;;;;;;34.20;88.20;;;;;;5038097;28;19917;-71
2022/12/25 06:01:56;;;;;;;;;;;34.20;88.70;;;;;;5039095;28;19913;-72
2022/12/25 06:04:23;;;;;;;;;;;34.10;89.30;;;;;;5035815;28;20359;-70
2022/12/25 06:06:50;;;;;;;;;;;34.10;89.90;;;;;;5032460;28;19918;-71
2022/12/25 06:09:16;;;;;;;;;;;34.10;88.90;;;;;;5032579;28;19975;-71
2022/12/25 06:11:44;;;;;;;;;;;34.10;88.80;;;;;;5050908;28;20013;-71
2022/12/25 06:14:15;;;;;;;;;;;34.00;89.50;;;;;;5019195;28;19956;-70
2022/12/25 06:16:41;;;;;;;;;;;34.10;88.90;;;;;;5036821;28;19925;-69
2022/12/25 06:19:08;;;;;;;;;;;34.10;89.10;;;;;;5031448;28;19913;-69
2022/12/25 06:21:34;;;;;;;;;;;34.10;89.20;;;;;;4886812;28;4055573;-70
2022/12/25 06:24:01;;;;;;;;;;;34.20;88.60;;;;;;5019225;28;19925;-70
2022/12/25 06:26:28;;;;;;;;;;;34.10;88.90;;;;;;5037771;28;19926;-71
2022/12/25 06:28:55;;;;;;;;;;;34.20;87.70;;;;;;5022983;28;19967;-70
2022/12/25 06:31:22;;;;;;;;;;;34.20;88.00;;;;;;5050879;28;20301;-69
2022/12/25 06:33:49;;;;;;;;;;;34.10;87.70;;;;;;5030962;28;19920;-69
2022/12/25 06:36:19;;;;;;;;;;;34.10;85.60;;;;;;5047070;28;19921;-71
2022/12/25 06:38:46;;;;;;;;;;;34.00;85.00;;;;;;5022291;28;19914;-70
2022/12/25 06:41:15;;;;;;;;;;;34.00;84.60;;;;;;5030801;28;19909;-72
2022/12/25 06:43:42;;;;;;;;;;;34.00;84.90;;;;;;5009178;28;19913;-71
2022/12/25 06:46:10;;;;;;;;;;;34.00;82.10;;;;;;5012170;28;20378;-71
2022/12/25 06:48:38;;;;;;;;;;;34.10;81.00;;;;;;5017696;28;20387;-71
2022/12/25 06:51:05;;;;;;;;;;;34.00;81.30;;;;;;5011670;28;19910;-76
2022/12/25 06:53:31;;;;;;;;;;;34.00;82.10;;;;;;5029086;28;20003;-74
2022/12/25 06:56:05;;;;;;;;;;;33.90;81.70;;;;;;5026181;28;19925;-74
2022/12/25 06:58:31;;;;;;;;;;;33.80;81.10;;;;;;5015448;28;19913;-76
2022/12/25 07:00:58;;;;;;;;;;;33.70;80.60;;;;;;5032195;28;20385;-71
2022/12/25 07:03:26;;;;;;;;;;;33.70;81.10;;;;;;5029790;28;20387;-71
2022/12/25 07:05:56;;;;;;;;;;;33.60;81.30;;;;;;5031410;28;19909;-73
2022/12/25 07:08:23;;;;;;;;;;;33.60;82.40;;;;;;5008532;28;19952;-70
2022/12/25 07:10:49;;;;;;;;;;;33.50;82.00;;;;;;5039050;28;19928;-71
2022/12/25 07:13:16;;;;;;;;;;;33.30;81.30;;;;;;5045355;28;20026;-74
2022/12/25 07:15:42;;;;;;;;;;;33.20;81.40;;;;;;5047819;28;19920;-71
2022/12/25 07:18:09;;;;;;;;;;;33.20;80.50;;;;;;5040084;28;19928;-71
2022/12/25 07:20:36;;;;;;;;;;;33.10;81.70;;;;;;5042070;28;19913;-70
2022/12/25 07:23:02;;;;;;;;;;;33.10;81.30;;;;;;5038140;28;20363;-71
2022/12/25 07:25:32;;;;;;;;;;;33.00;80.90;;;;;;5033879;28;21016;-70
2022/12/25 07:27:59;;;;;;;;;;;32.90;80.90;;;;;;5041013;28;19921;-73
2022/12/25 07:30:27;;;;;;;;;;;32.80;80.90;;;;;;5046297;28;19916;-70
2022/12/25 07:32:53;;;;;;;;;;;32.70;81.20;;;;;;5026619;28;20355;-70
2022/12/25 07:35:20;;;;;;;;;;;32.60;80.90;;;;;;5050159;28;19974;-70
2022/12/25 07:37:47;;;;;;;;;;;32.40;81.30;;;;;;5039790;28;19918;-75
2022/12/25 07:40:13;;;;;;;;;;;32.30;82.20;;;;;;5052911;28;19920;-70
2022/12/25 07:42:40;;;;;;;;;;;32.20;82.10;;;;;;5024925;28;20028;-71
2022/12/25 07:45:07;;;;;;;;;;;31.90;82.60;;;;;;5050033;28;19952;-78
2022/12/25 07:47:38;;;;;;;;;;;31.70;83.00;;;;;;5050895;28;19909;-71
2022/12/25 07:50:05;;;;;;;;;;;31.50;83.50;;;;;;5023230;28;19913;-73
2022/12/25 07:52:32;;;;;;;;;;;31.40;83.80;;;;;;5014531;28;19963;-71
2022/12/25 07:54:58;;;;;;;;;;;31.30;83.90;;;;;;5033217;28;20351;-70
2022/12/25 07:57:25;;;;;;;;;;;31.20;84.40;;;;;;5028948;28;19945;-70
2022/12/25 07:59:52;;;;;;;;;;;31.10;84.70;;;;;;5015195;28;20267;-75
2022/12/25 08:02:20;;;;;;;;;;;31.00;84.80;;;;;;5024748;28;20088;-69
2022/12/25 08:04:46;;;;;;;;;;;31.00;84.90;;;;;;5023853;28;20688;-70
2022/12/25 08:07:13;;;;;;;;;;;30.90;84.80;;;;;;5015887;28;19954;-71
2022/12/25 08:09:44;;;;;;;;;;;30.90;85.10;;;;;;5033619;28;19920;-79
2022/12/25 08:12:10;;;;;;;;;;;30.80;84.60;;;;;;5034120;28;20314;-71
2022/12/25 08:14:37;;;;;;;;;;;30.70;85.10;;;;;;5033035;28;20394;-71
2022/12/25 08:17:04;;;;;;;;;;;30.60;85.20;;;;;;5015239;28;19924;-74
2022/12/25 08:19:31;;;;;;;;;;;30.50;85.10;;;;;;5033153;28;19913;-71
2022/12/25 08:21:57;;;;;;;;;;;30.40;84.90;;;;;;5025013;28;19955;-71
2022/12/25 08:24:24;;;;;;;;;;;30.30;85.10;;;;;;5019710;28;20457;-70
2022/12/25 08:26:50;;;;;;;;;;;30.20;86.00;;;;;;5033512;28;20287;-70
2022/12/25 08:29:17;;;;;;;;;;;30.10;86.50;;;;;;5010721;28;19917;-68
2022/12/25 08:31:44;;;;;;;;;;;30.00;86.70;;;;;;5028929;28;19913;-69
2022/12/25 08:34:11;;;;;;;;;;;29.90;87.20;;;;;;5010430;28;20374;-78
2022/12/25 08:36:37;;;;;;;;;;;29.80;87.60;;;;;;5031994;28;20441;-68
2022/12/25 08:39:04;;;;;;;;;;;29.70;88.00;;;;;;5027831;28;19917;-70
2022/12/25 08:41:31;;;;;;;;;;;29.70;88.40;;;;;;5000464;28;19909;-73
2022/12/25 08:43:58;;;;;;;;;;;29.50;88.60;;;;;;5011255;28;19941;-69
2022/12/25 08:46:24;;;;;;;;;;;29.50;89.00;;;;;;5018305;28;19925;-74
2022/12/25 08:48:51;;;;;;;;;;;29.30;89.50;;;;;;5013188;28;19914;-71
2022/12/25 08:51:19;;;;;;;;;;;29.20;89.70;;;;;;5019688;28;19920;-70
2022/12/25 08:53:47;;;;;;;;;;;29.00;89.90;;;;;;5014849;28;19964;-72
2022/12/25 08:56:14;;;;;;;;;;;28.90;90.10;;;;;;5032436;28;20271;-71
2022/12/25 08:58:40;;;;;;;;;;;28.90;90.30;;;;;;5011832;28;19967;-71
2022/12/25 09:01:07;;;;;;;;;;;28.80;90.40;;;;;;5027351;28;20123;-69
2022/12/25 09:03:34;;;;;;;;;;;28.70;90.60;;;;;;5010873;28;19922;-70
2022/12/25 09:06:05;;;;;;;;;;;28.60;90.70;;;;;;5021512;28;20274;-70
2022/12/25 09:08:32;;;;;;;;;;;28.50;90.90;;;;;;5008906;28;19945;-70
2022/12/25 09:11:03;;;;;;;;;;;28.40;91.20;;;;;;5020421;28;19967;-71
2022/12/25 09:13:29;;;;;;;;;;;28.30;93.90;;;;;;5014150;28;20372;-72
2022/12/25 09:15:56;;;;;;;;;;;28.20;94.80;;;;;;4998197;28;19925;-71
2022/12/25 09:18:23;;;;;;;;;;;28.00;95.30;;;;;;5002255;28;20000;-71
2022/12/25 09:20:59;;;;;;;;;;;27.80;95.70;;;;;;5012535;28;19961;-70
2022/12/25 09:23:26;;;;;;;;;;;27.70;96.00;;;;;;5012980;28;19925;-71
2022/12/25 09:25:53;;;;;;;;;;;27.60;96.40;;;;;;5023554;28;20426;-72
2022/12/25 09:28:20;;;;;;;;;;;27.50;97.00;;;;;;5012596;28;20422;-71
2022/12/25 09:30:49;;;;;;;;;;;27.30;97.30;;;;;;5015656;28;19916;-71
2022/12/25 09:33:16;;;;;;;;;;;27.20;97.80;;;;;;5011300;28;19982;-69
2022/12/25 09:35:42;;;;;;;;;;;27.00;98.20;;;;;;5030914;28;19921;-70
2022/12/25 09:38:09;;;;;;;;;;;26.90;98.40;;;;;;5018111;28;20056;-70
2022/12/25 09:40:36;;;;;;;;;;;26.90;98.80;;;;;;5013947;28;19936;-71
2022/12/25 09:43:03;;;;;;;;;;;26.80;99.10;;;;;;5023742;28;19924;-70
2022/12/25 09:45:34;;;;;;;;;;;26.70;99.50;;;;;;5032179;28;19913;-69
2022/12/25 09:48:01;;;;;;;;;;;26.60;99.80;;;;;;5023091;28;20395;-71
2022/12/25 09:50:37;;;;;;;;;;;26.50;99.90;;;;;;5032026;28;20397;-70
2022/12/25 09:53:16;;;;;;;;;;;26.40;99.90;;;;;;5020426;28;20022;-70
2022/12/25 09:55:49;;;;;;;;;;;26.30;99.90;;;;;;5030031;28;19967;-70
2022/12/25 09:58:15;;;;;;;;;;;26.20;99.90;;;;;;5006664;28;19914;-71
2022/12/25 10:00:58;;;;;;;;;;;26.20;99.90;;;;;;5022834;28;19913;-69
2022/12/25 10:03:32;;;;;;;;;;;26.00;99.90;;;;;;5008964;28;19913;-71
2022/12/25 10:06:07;;;;;;;;;;;26.00;99.90;;;;;;5013822;28;19917;-73
2022/12/25 10:08:49;;;;;;;;;;;25.90;99.90;;;;;;5014790;28;19924;-74
2022/12/25 10:11:38;;;;;;;;;;;25.90;99.90;;;;;;5014792;28;19995;-72
2022/12/25 10:14:05;;;;;;;;;;;25.80;99.90;;;;;;5026053;28;19914;-74
2022/12/25 10:16:44;;;;;;;;;;;25.80;99.90;;;;;;4998516;28;19922;-72
2022/12/25 10:19:14;;;;;;;;;;;25.70;99.90;;;;;;5002610;28;20364;-73
2022/12/25 10:21:40;;;;;;;;;;;25.60;99.90;;;;;;5008223;28;19921;-70
2022/12/25 10:24:22;;;;;;;;;;;25.50;99.90;;;;;;5015390;28;19913;-73
2022/12/25 10:26:51;;;;;;;;;;;25.50;99.90;;;;;;5010247;28;19949;-73
2022/12/25 10:29:18;;;;;;;;;;;25.40;99.90;;;;;;5009329;28;19913;-75
2022/12/25 10:31:46;;;;;;;;;;;25.40;99.90;;;;;;5028848;28;20386;-71
2022/12/25 10:34:13;;;;;;;;;;;25.30;99.90;;;;;;5012684;28;19921;-74
2022/12/25 10:36:41;;;;;;;;;;;25.20;99.90;;;;;;5023930;28;20405;-73
2022/12/25 10:39:11;;;;;;;;;;;25.20;99.90;;;;;;4997853;28;19914;-73
2022/12/25 10:41:52;;;;;;;;;;;25.10;99.90;;;;;;5014337;28;19909;-72
2022/12/25 10:44:23;;;;;;;;;;;25.10;99.90;;;;;;5002171;28;20005;-74
2022/12/25 10:46:52;;;;;;;;;;;25.00;99.90;;;;;;5001257;28;20329;-73
2022/12/25 10:49:19;;;;;;;;;;;25.00;99.90;;;;;;5026657;28;19918;-72
2022/12/25 10:51:46;;;;;;;;;;;24.90;99.90;;;;;;5021204;28;19917;-72
2022/12/25 10:54:20;;;;;;;;;;;24.90;99.90;;;;;;5015363;28;19914;-79
2022/12/25 10:56:57;;;;;;;;;;;24.90;99.90;;;;;;5004139;28;19918;-71
2022/12/25 10:59:26;;;;;;;;;;;24.80;99.90;;;;;;5005190;28;19921;-73
2022/12/25 11:01:53;;;;;;;;;;;24.80;99.90;;;;;;5016925;28;19916;-72
2022/12/25 11:04:21;;;;;;;;;;;24.70;99.90;;;;;;5012803;28;19921;-71
2022/12/25 11:06:57;;;;;;;;;;;24.70;99.90;;;;;;5012449;28;19920;-73
2022/12/25 11:09:23;;;;;;;;;;;24.60;99.90;;;;;;4995629;28;19917;-74
2022/12/25 11:11:50;;;;;;;;;;;24.50;99.90;;;;;;5012004;28;19917;-73
2022/12/25 11:14:19;;;;;;;;;;;24.50;99.90;;;;;;5003401;28;20005;-74
2022/12/25 11:16:46;;;;;;;;;;;24.40;99.90;;;;;;5002931;28;20383;-71
2022/12/25 11:19:29;;;;;;;;;;;24.30;99.90;;;;;;5022929;28;19983;-74
2022/12/25 11:21:57;;;;;;;;;;;24.30;99.90;;;;;;5045454;28;19975;-71
2022/12/25 11:24:28;;;;;;;;;;;24.20;99.90;;;;;;5019414;28;19936;-71
2022/12/25 11:27:00;;;;;;;;;;;24.10;99.90;;;;;;5031309;28;19913;-73
2022/12/25 11:29:42;;;;;;;;;;;24.10;99.90;;;;;;5044345;28;20032;-72
2022/12/25 11:32:18;;;;;;;;;;;24.00;99.90;;;;;;5035148;28;19924;-77
2022/12/25 11:34:45;;;;;;;;;;;24.00;99.90;;;;;;5047048;28;19913;-77
2022/12/25 11:37:26;;;;;;;;;;;23.90;99.90;;;;;;5021678;28;19933;-72
2022/12/25 11:39:53;;;;;;;;;;;23.90;99.90;;;;;;5032342;28;20026;-74
2022/12/25 11:42:41;;;;;;;;;;;23.80;99.90;;;;;;5050730;28;19921;-70
2022/12/25 11:45:16;;;;;;;;;;;23.80;99.90;;;;;;5015042;28;19967;-81
2022/12/25 11:48:06;;;;;;;;;;;23.70;99.90;;;;;;5027820;28;19913;-73
2022/12/25 11:50:47;;;;;;;;;;;23.70;99.90;;;;;;5029894;28;19920;-72
2022/12/25 11:53:21;;;;;;;;;;;23.70;99.90;;;;;;5038419;28;20617;-70
2022/12/25 11:55:56;;;;;;;;;;;23.60;99.90;;;;;;5042205;28;19921;-80
2022/12/25 11:58:28;;;;;;;;;;;23.50;99.90;;;;;;5026862;28;20386;-72
2022/12/25 12:00:56;;;;;;;;;;;23.50;99.90;;;;;;5033041;28;20402;-72
2022/12/25 12:03:25;;;;;;;;;;;23.40;99.90;;;;;;5025392;28;20012;-72
2022/12/25 12:06:15;;;;;;;;;;;23.30;99.90;;;;;;5026586;28;19928;-70
2022/12/25 12:08:42;;;;;;;;;;;23.30;99.90;;;;;;5021993;28;19919;-72
2022/12/25 12:11:16;;;;;;;;;;;23.30;99.90;;;;;;5032550;28;19917;-73
2022/12/25 12:13:49;;;;;;;;;;;23.20;99.90;;;;;;5036619;28;19983;-70
2022/12/25 12:16:15;;;;;;;;;;;23.10;99.90;;;;;;5051995;28;19917;-74
2022/12/25 12:18:43;;;;;;;;;;;23.10;99.90;;;;;;5035281;28;19914;-72
2022/12/25 12:21:20;;;;;;;;;;;23.00;99.90;;;;;;5031620;28;19917;-70
2022/12/25 12:24:02;;;;;;;;;;;23.00;99.90;;;;;;5027826;28;19921;-71
2022/12/25 12:26:29;;;;;;;;;;;23.00;99.90;;;;;;5030568;28;20771;-72
2022/12/25 12:29:00;;;;;;;;;;;23.00;99.90;;;;;;5025690;28;20434;-72
2022/12/25 12:31:56;;;;;;;;;;;22.90;99.90;;;;;;5025659;28;19957;-74
2022/12/25 12:34:25;;;;;;;;;;;22.90;99.90;;;;;;5034959;28;19996;-73
2022/12/25 12:36:55;;;;;;;;;;;22.90;99.90;;;;;;5028827;28;19921;-71
2022/12/25 12:39:25;;;;;;;;;;;22.90;99.90;;;;;;5026782;28;20015;-73
2022/12/25 12:41:52;;;;;;;;;;;22.90;99.90;;;;;;5031418;28;19916;-69
2022/12/25 12:44:19;;;;;;;;;;;22.80;99.90;;;;;;5016523;28;20292;-72
2022/12/25 12:46:53;;;;;;;;;;;22.80;99.90;;;;;;5028863;28;19995;-72
2022/12/25 12:49:22;;;;;;;;;;;22.80;99.90;;;;;;5025982;28;20385;-72
2022/12/25 12:51:49;;;;;;;;;;;22.70;99.90;;;;;;5028014;28;19924;-71
2022/12/25 12:54:22;;;;;;;;;;;22.70;99.90;;;;;;5026230;28;19917;-76
2022/12/25 12:56:55;;;;;;;;;;;22.60;99.90;;;;;;5020520;28;19929;-75
2022/12/25 12:59:23;;;;;;;;;;;22.60;99.90;;;;;;5029824;28;19917;-71
2022/12/25 13:02:05;;;;;;;;;;;22.60;99.90;;;;;;5025436;28;19921;-72
2022/12/25 13:04:36;;;;;;;;;;;22.50;99.90;;;;;;5027352;28;19913;-76
2022/12/25 13:07:20;;;;;;;;;;;22.50;99.90;;;;;;5031126;28;20291;-71
2022/12/25 13:10:10;;;;;;;;;;;22.40;99.90;;;;;;5034770;28;19955;-71
2022/12/25 13:12:37;;;;;;;;;;;22.30;99.90;;;;;;5017024;28;20497;-70
2022/12/25 13:15:10;;;;;;;;;;;22.30;99.90;;;;;;5025882;28;19964;-72
2022/12/25 13:17:37;;;;;;;;;;;22.20;99.90;;;;;;5021467;28;19928;-70
2022/12/25 13:20:04;;;;;;;;;;;22.20;99.90;;;;;;5031361;28;19913;-70
2022/12/25 13:22:32;;;;;;;;;;;22.10;99.90;;;;;;5004223;28;19922;-71
2022/12/25 13:25:00;;;;;;;;;;;22.10;99.90;;;;;;5012326;28;19913;-71
2022/12/25 13:27:28;;;;;;;;;;;22.00;99.90;;;;;;4992941;28;19914;-69
2022/12/25 13:29:55;;;;;;;;;;;22.00;99.90;;;;;;5002929;28;19916;-72
2022/12/25 13:32:25;;;;;;;;;;;22.00;99.90;;;;;;5001776;28;20256;-76
2022/12/25 13:34:54;;;;;;;;;;;21.90;99.90;;;;;;5003024;28;20005;-72
2022/12/25 13:37:23;;;;;;;;;;;21.90;99.90;;;;;;5006123;28;19921;-71
2022/12/25 13:39:59;;;;;;;;;;;21.90;99.90;;;;;;5024404;28;19948;-72
2022/12/25 13:42:36;;;;;;;;;;;21.90;99.90;;;;;;5010280;28;19921;-71
2022/12/25 13:45:12;;;;;;;;;;;21.80;99.90;;;;;;5008139;28;19913;-72
2022/12/25 13:47:39;;;;;;;;;;;21.80;99.90;;;;;;4997258;28;19914;-71
2022/12/25 13:50:35;;;;;;;;;;;21.80;99.90;;;;;;5008645;28;19925;-79
2022/12/25 13:53:12;;;;;;;;;;;21.80;99.90;;;;;;4990293;28;19917;-70
2022/12/25 13:55:41;;;;;;;;;;;21.70;99.90;;;;;;5011885;28;19917;-70
2022/12/25 13:58:14;;;;;;;;;;;21.70;99.90;;;;;;5013482;28;19924;-70
2022/12/25 14:00:49;;;;;;;;;;;21.70;99.90;;;;;;5008587;28;19918;-73
2022/12/25 14:03:21;;;;;;;;;;;21.70;99.90;;;;;;5005865;28;19917;-74
2022/12/25 14:06:05;;;;;;;;;;;21.60;99.90;;;;;;4990088;28;20862;-74
2022/12/25 14:08:33;;;;;;;;;;;21.60;99.90;;;;;;4997305;28;20348;-70
2022/12/25 14:11:04;;;;;;;;;;;21.60;99.90;;;;;;5003906;28;19921;-72
2022/12/25 14:13:32;;;;;;;;;;;21.60;99.90;;;;;;5000945;28;19920;-70
2022/12/25 14:16:00;;;;;;;;;;;21.50;99.90;;;;;;5006659;28;20399;-70
2022/12/25 14:18:26;;;;;;;;;;;21.50;99.90;;;;;;5004250;28;20283;-69
2022/12/25 14:20:58;;;;;;;;;;;21.50;99.90;;;;;;4999497;28;19925;-70
2022/12/25 14:23:25;;;;;;;;;;;21.40;99.90;;;;;;5006644;28;20017;-68
2022/12/25 14:25:52;;;;;;;;;;;21.40;99.90;;;;;;4976530;28;19914;-67
2022/12/25 14:28:31;;;;;;;;;;;21.40;99.90;;;;;;5004406;28;20035;-68
2022/12/25 14:30:59;;;;;;;;;;;21.40;99.90;;;;;;4993711;28;19992;-68
2022/12/25 14:33:26;;;;;;;;;;;21.30;99.90;;;;;;4998811;28;19914;-68
2022/12/25 14:35:53;;;;;;;;;;;21.30;99.90;;;;;;5009450;28;19917;-69
2022/12/25 14:38:25;;;;;;;;;;;21.30;99.90;;;;;;5005555;28;19917;-68
2022/12/25 14:41:02;;;;;;;;;;;21.20;99.90;;;;;;5003754;28;19918;-69
2022/12/25 14:43:30;;;;;;;;;;;21.20;99.90;;;;;;5011045;28;19918;-68
2022/12/25 14:45:58;;;;;;;;;;;21.20;99.90;;;;;;4990723;28;19976;-68
2022/12/25 14:48:26;;;;;;;;;;;21.20;99.90;;;;;;5011442;28;19917;-68
2022/12/25 14:51:03;;;;;;;;;;;21.10;99.90;;;;;;5010761;28;19921;-68
2022/12/25 14:53:37;;;;;;;;;;;21.10;99.90;;;;;;5012398;28;19957;-67
2022/12/25 14:56:04;;;;;;;;;;;21.00;99.90;;;;;;5021434;28;19995;-68
2022/12/25 14:58:32;;;;;;;;;;;21.00;99.90;;;;;;5004800;28;20474;-68
2022/12/25 15:01:03;;;;;;;;;;;21.00;99.90;;;;;;5000744;28;19910;-68
2022/12/25 15:03:31;;;;;;;;;;;21.00;99.90;;;;;;5013821;28;20318;-68
2022/12/25 15:06:00;;;;;;;;;;;21.00;99.90;;;;;;5009266;28;20411;-68
2022/12/25 15:08:27;;;;;;;;;;;20.90;99.90;;;;;;5009642;28;19921;-69
2022/12/25 15:10:57;;;;;;;;;;;20.90;99.90;;;;;;5012283;28;19964;-70
2022/12/25 15:13:24;;;;;;;;;;;20.80;99.90;;;;;;5004574;28;20402;-68
2022/12/25 15:16:11;;;;;;;;;;;20.80;99.90;;;;;;5010712;28;20326;-68
2022/12/25 15:18:42;;;;;;;;;;;20.70;99.90;;;;;;5011482;28;19914;-68
2022/12/25 15:21:22;;;;;;;;;;;20.70;99.90;;;;;;5014689;28;19929;-68
2022/12/25 15:23:49;;;;;;;;;;;20.70;99.90;;;;;;5010658;28;19913;-69
2022/12/25 15:26:16;;;;;;;;;;;20.60;99.90;;;;;;4991908;28;20011;-68
2022/12/25 15:28:43;;;;;;;;;;;20.60;99.90;;;;;;5010879;28;19913;-68
2022/12/25 15:31:23;;;;;;;;;;;20.60;99.90;;;;;;5014947;28;19953;-68
2022/12/25 15:33:51;;;;;;;;;;;20.50;99.90;;;;;;5013200;28;19920;-67
2022/12/25 15:36:18;;;;;;;;;;;20.50;99.90;;;;;;5012910;28;19922;-68
2022/12/25 15:38:45;;;;;;;;;;;20.50;99.90;;;;;;5001369;28;20376;-71
2022/12/25 15:44:05;;;;;;;;;;;20.50;99.90;;;;;;5001845;28;20510;-67
2022/12/25 15:46:32;;;;;;;;;;;20.40;99.90;;;;;;5011202;28;19986;-70
2022/12/25 15:48:59;;;;;;;;;;;20.40;99.90;;;;;;5010570;28;19917;-68
2022/12/25 15:51:26;;;;;;;;;;;20.40;99.90;;;;;;5013422;28;19909;-70
2022/12/25 15:53:53;;;;;;;;;;;20.30;99.90;;;;;;5001893;28;19917;-68
2022/12/25 15:56:20;;;;;;;;;;;20.30;99.90;;;;;;5007853;28;19926;-69
2022/12/25 15:58:47;;;;;;;;;;;20.30;99.90;;;;;;5002381;28;20288;-67
2022/12/25 16:01:17;;;;;;;;;;;20.30;99.90;;;;;;5002823;28;19925;-72
2022/12/25 16:03:44;;;;;;;;;;;20.30;99.90;;;;;;5006965;28;19924;-68
2022/12/25 16:06:12;;;;;;;;;;;20.20;99.90;;;;;;4994220;28;19925;-67
2022/12/25 16:08:38;;;;;;;;;;;20.20;99.90;;;;;;5013129;28;19952;-68
2022/12/25 16:11:05;;;;;;;;;;;20.10;99.90;;;;;;5009569;28;19940;-72